VTBS/BKK METAR and TAF weather

Enter ICAO airport designator
Station Type Date Time Source
VTBS METAR 2019/02/20 23:30 UTC NOAA

VTBS 202330Z VRB02KT 9000 FEW025 25/24 Q1014 NOSIG


Station Type Date Time Source
VTBS Decoded METAR 2019/02/20 23:30 UTC NOAA

Chon Buri, Thailand (VTBS) 13-22N 100-59E 2M
Feb 20, 2019 - 06:30 PM EST / 2019.02.20 2330 UTC
Wind: Variable at 2 MPH (2 KT):0
Visibility: 5 mile(s):0
Sky conditions: mostly clear
Temperature: 77 F (25 C)
Dew Point: 75 F (24 C)
Relative Humidity: 94%
Pressure (altimeter): 29.94 in. Hg (1014 hPa)
ob: VTBS 202330Z VRB02KT 9000 FEW025 25/24 Q1014 NOSIG
cycle: 23

Station Type Date Time Source
VTBS TAF 2019/02/20 18:00 UTC NOAA

TAF VTBS 201700Z 2018/2124 20008KT 9999 FEW030


Example: see airport list